sensor_id;sensor_type;location;lat;lon;timestamp;P1;durP1;ratioP1;P2;durP2;ratioP2
29314;SDS011;16320;53.954;9.506;2024-01-16T00:02:17;12.43;;;7.13;;
29314;SDS011;16320;53.954;9.506;2024-01-16T00:04:45;12.52;;;6.43;;
29314;SDS011;16320;53.954;9.506;2024-01-16T00:07:13;8.55;;;5.32;;
29314;SDS011;16320;53.954;9.506;2024-01-16T00:09:42;8.68;;;5.18;;
29314;SDS011;16320;53.954;9.506;2024-01-16T00:12:09;7.22;;;5.10;;
29314;SDS011;16320;53.954;9.506;2024-01-16T00:14:39;7.60;;;4.72;;
29314;SDS011;16320;53.954;9.506;2024-01-16T00:17:07;5.85;;;4.15;;
29314;SDS011;16320;53.954;9.506;2024-01-16T00:19:36;9.45;;;5.40;;
29314;SDS011;16320;53.954;9.506;2024-01-16T00:22:04;9.00;;;5.90;;
29314;SDS011;16320;53.954;9.506;2024-01-16T00:24:32;13.63;;;5.13;;
29314;SDS011;16320;53.954;9.506;2024-01-16T00:27:00;6.55;;;4.90;;
29314;SDS011;16320;53.954;9.506;2024-01-16T00:29:28;7.53;;;5.10;;
29314;SDS011;16320;53.954;9.506;2024-01-16T00:31:58;9.40;;;5.75;;
29314;SDS011;16320;53.954;9.506;2024-01-16T00:34:26;8.40;;;4.85;;
29314;SDS011;16320;53.954;9.506;2024-01-16T00:36:55;11.10;;;5.18;;
29314;SDS011;16320;53.954;9.506;2024-01-16T00:39:23;11.18;;;5.15;;
29314;SDS011;16320;53.954;9.506;2024-01-16T00:41:51;8.73;;;4.47;;
29314;SDS011;16320;53.954;9.506;2024-01-16T00:44:20;8.32;;;5.30;;
29314;SDS011;16320;53.954;9.506;2024-01-16T00:46:49;9.63;;;5.03;;
29314;SDS011;16320;53.954;9.506;2024-01-16T00:49:17;6.60;;;5.07;;
29314;SDS011;16320;53.954;9.506;2024-01-16T00:51:47;8.75;;;4.78;;
29314;SDS011;16320;53.954;9.506;2024-01-16T00:54:16;8.38;;;4.53;;
29314;SDS011;16320;53.954;9.506;2024-01-16T00:56:44;11.52;;;4.30;;
29314;SDS011;16320;53.954;9.506;2024-01-16T00:59:12;10.00;;;4.65;;
29314;SDS011;16320;53.954;9.506;2024-01-16T01:01:42;9.60;;;4.45;;
29314;SDS011;16320;53.954;9.506;2024-01-16T01:04:10;6.05;;;4.80;;
29314;SDS011;16320;53.954;9.506;2024-01-16T01:06:38;8.50;;;4.60;;
29314;SDS011;16320;53.954;9.506;2024-01-16T01:09:06;7.82;;;4.47;;
29314;SDS011;16320;53.954;9.506;2024-01-16T01:11:34;9.43;;;5.20;;
29314;SDS011;16320;53.954;9.506;2024-01-16T01:14:04;9.55;;;4.72;;
29314;SDS011;16320;53.954;9.506;2024-01-16T01:16:33;9.35;;;5.18;;
29314;SDS011;16320;53.954;9.506;2024-01-16T01:19:01;7.72;;;4.43;;
29314;SDS011;16320;53.954;9.506;2024-01-16T01:21:31;7.75;;;4.55;;
29314;SDS011;16320;53.954;9.506;2024-01-16T01:23:59;7.35;;;4.72;;
29314;SDS011;16320;53.954;9.506;2024-01-16T01:26:27;12.73;;;5.30;;
29314;SDS011;16320;53.954;9.506;2024-01-16T01:28:55;8.93;;;5.22;;
29314;SDS011;16320;53.954;9.506;2024-01-16T01:31:24;9.23;;;5.05;;
29314;SDS011;16320;53.954;9.506;2024-01-16T01:33:52;12.20;;;5.88;;
29314;SDS011;16320;53.954;9.506;2024-01-16T01:36:20;6.07;;;4.70;;
29314;SDS011;16320;53.954;9.506;2024-01-16T01:38:48;14.27;;;5.63;;
29314;SDS011;16320;53.954;9.506;2024-01-16T01:41:17;9.68;;;5.22;;
29314;SDS011;16320;53.954;9.506;2024-01-16T01:43:45;7.57;;;5.80;;
29314;SDS011;16320;53.954;9.506;2024-01-16T01:46:18;9.80;;;4.97;;
29314;SDS011;16320;53.954;9.506;2024-01-16T01:48:47;9.35;;;5.47;;
29314;SDS011;16320;53.954;9.506;2024-01-16T01:51:17;11.10;;;5.82;;
29314;SDS011;16320;53.954;9.506;2024-01-16T01:53:47;7.40;;;5.40;;
29314;SDS011;16320;53.954;9.506;2024-01-16T01:56:18;8.73;;;5.32;;
29314;SDS011;16320;53.954;9.506;2024-01-16T01:58:48;7.05;;;4.78;;
29314;SDS011;16320;53.954;9.506;2024-01-16T02:01:21;9.60;;;5.45;;
29314;SDS011;16320;53.954;9.506;2024-01-16T02:03:50;9.20;;;5.55;;
29314;SDS011;16320;53.954;9.506;2024-01-16T02:06:19;6.05;;;4.93;;
29314;SDS011;16320;53.954;9.506;2024-01-16T02:08:48;8.27;;;5.28;;
29314;SDS011;16320;53.954;9.506;2024-01-16T02:11:17;11.18;;;6.10;;
29314;SDS011;16320;53.954;9.506;2024-01-16T02:13:45;11.38;;;5.95;;
29314;SDS011;16320;53.954;9.506;2024-01-16T02:16:20;12.55;;;6.40;;
29314;SDS011;16320;53.954;9.506;2024-01-16T02:18:49;10.43;;;5.82;;
29314;SDS011;16320;53.954;9.506;2024-01-16T02:21:20;9.07;;;5.45;;
29314;SDS011;16320;53.954;9.506;2024-01-16T02:23:49;9.82;;;5.57;;
29314;SDS011;16320;53.954;9.506;2024-01-16T02:26:19;13.07;;;6.50;;
29314;SDS011;16320;53.954;9.506;2024-01-16T02:28:47;11.80;;;6.07;;
29314;SDS011;16320;53.954;9.506;2024-01-16T02:31:15;13.05;;;5.90;;
29314;SDS011;16320;53.954;9.506;2024-01-16T02:33:44;11.90;;;6.22;;
29314;SDS011;16320;53.954;9.506;2024-01-16T02:36:12;14.55;;;6.13;;
29314;SDS011;16320;53.954;9.506;2024-01-16T02:38:40;9.38;;;5.90;;
29314;SDS011;16320;53.954;9.506;2024-01-16T02:41:13;10.93;;;6.72;;
29314;SDS011;16320;53.954;9.506;2024-01-16T02:43:42;8.52;;;6.07;;
29314;SDS011;16320;53.954;9.506;2024-01-16T02:46:11;13.20;;;6.78;;
29314;SDS011;16320;53.954;9.506;2024-01-16T02:48:39;10.25;;;6.60;;
29314;SDS011;16320;53.954;9.506;2024-01-16T02:51:09;10.10;;;6.50;;
29314;SDS011;16320;53.954;9.506;2024-01-16T02:53:37;19.60;;;8.50;;
29314;SDS011;16320;53.954;9.506;2024-01-16T02:56:05;14.43;;;7.65;;
29314;SDS011;16320;53.954;9.506;2024-01-16T02:58:34;14.65;;;8.57;;
29314;SDS011;16320;53.954;9.506;2024-01-16T03:01:02;14.25;;;7.70;;
29314;SDS011;16320;53.954;9.506;2024-01-16T03:03:30;20.45;;;9.00;;
29314;SDS011;16320;53.954;9.506;2024-01-16T03:05:59;18.98;;;9.52;;
29314;SDS011;16320;53.954;9.506;2024-01-16T03:08:27;20.13;;;11.02;;
29314;SDS011;16320;53.954;9.506;2024-01-16T03:10:55;17.52;;;10.07;;
29314;SDS011;16320;53.954;9.506;2024-01-16T03:13:23;21.50;;;10.75;;
29314;SDS011;16320;53.954;9.506;2024-01-16T03:15:51;18.77;;;9.63;;
29314;SDS011;16320;53.954;9.506;2024-01-16T03:18:19;21.00;;;10.32;;
29314;SDS011;16320;53.954;9.506;2024-01-16T03:20:48;21.00;;;10.88;;
29314;SDS011;16320;53.954;9.506;2024-01-16T03:23:16;21.00;;;10.90;;
29314;SDS011;16320;53.954;9.506;2024-01-16T03:25:45;23.33;;;11.23;;
29314;SDS011;16320;53.954;9.506;2024-01-16T03:28:13;23.98;;;11.32;;
29314;SDS011;16320;53.954;9.506;2024-01-16T03:30:41;27.25;;;12.43;;
29314;SDS011;16320;53.954;9.506;2024-01-16T03:33:09;22.67;;;12.30;;
29314;SDS011;16320;53.954;9.506;2024-01-16T03:35:37;25.33;;;13.57;;
29314;SDS011;16320;53.954;9.506;2024-01-16T03:38:05;24.98;;;11.98;;
29314;SDS011;16320;53.954;9.506;2024-01-16T03:40:34;22.35;;;12.40;;
29314;SDS011;16320;53.954;9.506;2024-01-16T03:43:02;23.63;;;11.98;;
29314;SDS011;16320;53.954;9.506;2024-01-16T03:45:31;25.45;;;12.63;;
29314;SDS011;16320;53.954;9.506;2024-01-16T03:47:59;20.35;;;12.30;;
29314;SDS011;16320;53.954;9.506;2024-01-16T03:50:27;22.08;;;11.55;;
29314;SDS011;16320;53.954;9.506;2024-01-16T03:52:56;25.23;;;12.25;;
29314;SDS011;16320;53.954;9.506;2024-01-16T03:55:24;20.45;;;11.50;;
29314;SDS011;16320;53.954;9.506;2024-01-16T03:57:52;21.70;;;11.48;;
29314;SDS011;16320;53.954;9.506;2024-01-16T04:00:20;24.75;;;12.15;;
29314;SDS011;16320;53.954;9.506;2024-01-16T04:02:48;18.23;;;10.93;;
29314;SDS011;16320;53.954;9.506;2024-01-16T04:05:16;17.67;;;9.95;;
29314;SDS011;16320;53.954;9.506;2024-01-16T04:07:44;20.33;;;10.07;;
29314;SDS011;16320;53.954;9.506;2024-01-16T04:10:12;17.73;;;9.68;;
29314;SDS011;16320;53.954;9.506;2024-01-16T04:12:40;17.60;;;9.80;;
29314;SDS011;16320;53.954;9.506;2024-01-16T04:15:08;16.60;;;9.80;;
29314;SDS011;16320;53.954;9.506;2024-01-16T04:17:36;19.73;;;9.50;;
29314;SDS011;16320;53.954;9.506;2024-01-16T04:20:05;19.52;;;10.60;;
29314;SDS011;16320;53.954;9.506;2024-01-16T04:22:34;16.20;;;9.38;;
29314;SDS011;16320;53.954;9.506;2024-01-16T04:25:02;19.45;;;10.05;;
29314;SDS011;16320;53.954;9.506;2024-01-16T04:27:31;19.92;;;10.15;;
29314;SDS011;16320;53.954;9.506;2024-01-16T04:29:59;19.30;;;9.55;;
29314;SDS011;16320;53.954;9.506;2024-01-16T04:32:28;16.33;;;9.63;;
29314;SDS011;16320;53.954;9.506;2024-01-16T04:34:56;18.60;;;9.88;;
29314;SDS011;16320;53.954;9.506;2024-01-16T04:37:24;21.63;;;10.80;;
29314;SDS011;16320;53.954;9.506;2024-01-16T04:39:52;18.55;;;10.35;;
29314;SDS011;16320;53.954;9.506;2024-01-16T04:42:20;18.33;;;10.07;;
29314;SDS011;16320;53.954;9.506;2024-01-16T04:44:49;22.60;;;9.93;;
29314;SDS011;16320;53.954;9.506;2024-01-16T04:47:17;18.63;;;10.18;;
29314;SDS011;16320;53.954;9.506;2024-01-16T04:49:45;16.60;;;9.48;;
29314;SDS011;16320;53.954;9.506;2024-01-16T04:52:13;21.63;;;9.95;;
29314;SDS011;16320;53.954;9.506;2024-01-16T04:54:42;18.30;;;10.13;;
29314;SDS011;16320;53.954;9.506;2024-01-16T04:57:12;16.48;;;9.68;;
29314;SDS011;16320;53.954;9.506;2024-01-16T04:59:40;21.77;;;10.98;;
29314;SDS011;16320;53.954;9.506;2024-01-16T05:02:08;22.73;;;13.63;;
29314;SDS011;16320;53.954;9.506;2024-01-16T05:04:36;20.73;;;13.57;;
29314;SDS011;16320;53.954;9.506;2024-01-16T05:07:05;19.65;;;13.52;;
29314;SDS011;16320;53.954;9.506;2024-01-16T05:09:33;16.98;;;10.63;;
29314;SDS011;16320;53.954;9.506;2024-01-16T05:12:01;20.38;;;10.50;;
29314;SDS011;16320;53.954;9.506;2024-01-16T05:14:29;39.97;;;18.80;;
29314;SDS011;16320;53.954;9.506;2024-01-16T05:16:57;19.80;;;9.88;;
29314;SDS011;16320;53.954;9.506;2024-01-16T05:19:25;15.77;;;9.43;;
29314;SDS011;16320;53.954;9.506;2024-01-16T05:21:53;18.98;;;10.85;;
29314;SDS011;16320;53.954;9.506;2024-01-16T05:24:21;37.60;;;13.23;;
29314;SDS011;16320;53.954;9.506;2024-01-16T05:26:49;24.75;;;10.68;;
29314;SDS011;16320;53.954;9.506;2024-01-16T05:29:18;29.65;;;11.52;;
29314;SDS011;16320;53.954;9.506;2024-01-16T05:31:46;19.20;;;10.25;;
29314;SDS011;16320;53.954;9.506;2024-01-16T05:34:14;20.40;;;9.07;;
29314;SDS011;16320;53.954;9.506;2024-01-16T05:36:43;15.95;;;9.15;;
29314;SDS011;16320;53.954;9.506;2024-01-16T05:39:11;21.25;;;9.07;;
29314;SDS011;16320;53.954;9.506;2024-01-16T05:41:39;18.55;;;8.00;;
29314;SDS011;16320;53.954;9.506;2024-01-16T05:44:07;16.77;;;8.98;;
29314;SDS011;16320;53.954;9.506;2024-01-16T05:46:35;19.98;;;9.00;;
29314;SDS011;16320;53.954;9.506;2024-01-16T05:49:03;17.38;;;8.00;;
29314;SDS011;16320;53.954;9.506;2024-01-16T05:51:31;14.88;;;8.60;;
29314;SDS011;16320;53.954;9.506;2024-01-16T05:53:59;19.30;;;8.70;;
29314;SDS011;16320;53.954;9.506;2024-01-16T05:56:27;17.77;;;8.55;;
29314;SDS011;16320;53.954;9.506;2024-01-16T05:58:55;16.20;;;8.00;;
29314;SDS011;16320;53.954;9.506;2024-01-16T06:01:23;16.35;;;7.82;;
29314;SDS011;16320;53.954;9.506;2024-01-16T06:03:52;14.98;;;8.55;;
29314;SDS011;16320;53.954;9.506;2024-01-16T06:06:21;17.70;;;7.32;;
29314;SDS011;16320;53.954;9.506;2024-01-16T06:08:50;13.30;;;6.57;;
29314;SDS011;16320;53.954;9.506;2024-01-16T06:11:18;10.73;;;5.22;;
29314;SDS011;16320;53.954;9.506;2024-01-16T06:13:56;13.38;;;5.88;;
29314;SDS011;16320;53.954;9.506;2024-01-16T06:16:24;12.52;;;5.85;;
29314;SDS011;16320;53.954;9.506;2024-01-16T06:18:53;6.97;;;4.47;;
29314;SDS011;16320;53.954;9.506;2024-01-16T06:21:24;9.82;;;6.15;;
29314;SDS011;16320;53.954;9.506;2024-01-16T06:23:52;8.68;;;4.30;;
29314;SDS011;16320;53.954;9.506;2024-01-16T06:26:20;8.02;;;4.43;;
29314;SDS011;16320;53.954;9.506;2024-01-16T06:28:49;12.70;;;6.47;;
29314;SDS011;16320;53.954;9.506;2024-01-16T06:31:19;12.32;;;5.82;;
29314;SDS011;16320;53.954;9.506;2024-01-16T06:33:47;10.23;;;5.35;;
29314;SDS011;16320;53.954;9.506;2024-01-16T06:36:15;10.23;;;4.95;;
29314;SDS011;16320;53.954;9.506;2024-01-16T06:38:44;12.35;;;5.35;;
29314;SDS011;16320;53.954;9.506;2024-01-16T06:41:12;10.45;;;4.35;;
29314;SDS011;16320;53.954;9.506;2024-01-16T06:43:40;13.18;;;5.63;;
29314;SDS011;16320;53.954;9.506;2024-01-16T06:46:08;12.32;;;4.15;;
29314;SDS011;16320;53.954;9.506;2024-01-16T06:48:37;9.05;;;4.43;;
29314;SDS011;16320;53.954;9.506;2024-01-16T06:51:05;11.65;;;4.22;;
29314;SDS011;16320;53.954;9.506;2024-01-16T06:53:34;7.70;;;4.25;;
29314;SDS011;16320;53.954;9.506;2024-01-16T06:56:02;10.70;;;3.83;;
29314;SDS011;16320;53.954;9.506;2024-01-16T06:58:30;7.95;;;4.10;;
29314;SDS011;16320;53.954;9.506;2024-01-16T07:00:58;6.30;;;4.00;;
29314;SDS011;16320;53.954;9.506;2024-01-16T07:03:26;9.57;;;4.32;;
29314;SDS011;16320;53.954;9.506;2024-01-16T07:05:55;6.32;;;3.75;;
29314;SDS011;16320;53.954;9.506;2024-01-16T07:08:23;11.93;;;5.18;;
29314;SDS011;16320;53.954;9.506;2024-01-16T07:10:51;12.48;;;4.50;;
29314;SDS011;16320;53.954;9.506;2024-01-16T07:13:19;10.32;;;4.63;;
29314;SDS011;16320;53.954;9.506;2024-01-16T07:15:47;9.02;;;4.20;;
29314;SDS011;16320;53.954;9.506;2024-01-16T07:18:15;10.73;;;4.65;;
29314;SDS011;16320;53.954;9.506;2024-01-16T07:20:45;9.00;;;4.38;;
29314;SDS011;16320;53.954;9.506;2024-01-16T07:23:13;8.23;;;4.68;;
29314;SDS011;16320;53.954;9.506;2024-01-16T07:25:41;9.18;;;4.55;;
29314;SDS011;16320;53.954;9.506;2024-01-16T07:28:09;8.10;;;4.57;;
29314;SDS011;16320;53.954;9.506;2024-01-16T07:30:37;10.20;;;5.20;;
29314;SDS011;16320;53.954;9.506;2024-01-16T07:33:06;11.75;;;5.90;;
29314;SDS011;16320;53.954;9.506;2024-01-16T07:35:34;11.82;;;5.88;;
29314;SDS011;16320;53.954;9.506;2024-01-16T07:38:03;18.50;;;6.70;;
29314;SDS011;16320;53.954;9.506;2024-01-16T07:40:31;14.52;;;6.68;;
29314;SDS011;16320;53.954;9.506;2024-01-16T07:42:59;15.57;;;6.82;;
29314;SDS011;16320;53.954;9.506;2024-01-16T07:45:26;14.05;;;6.40;;
29314;SDS011;16320;53.954;9.506;2024-01-16T07:47:54;11.02;;;5.40;;
29314;SDS011;16320;53.954;9.506;2024-01-16T07:50:22;17.13;;;6.88;;
29314;SDS011;16320;53.954;9.506;2024-01-16T07:52:50;11.88;;;5.93;;
29314;SDS011;16320;53.954;9.506;2024-01-16T07:55:18;11.50;;;6.70;;
29314;SDS011;16320;53.954;9.506;2024-01-16T07:57:50;11.48;;;6.07;;
29314;SDS011;16320;53.954;9.506;2024-01-16T08:00:18;9.63;;;5.15;;
29314;SDS011;16320;53.954;9.506;2024-01-16T08:02:46;10.25;;;6.20;;
29314;SDS011;16320;53.954;9.506;2024-01-16T08:05:15;9.57;;;5.32;;
29314;SDS011;16320;53.954;9.506;2024-01-16T08:07:44;12.30;;;6.22;;
29314;SDS011;16320;53.954;9.506;2024-01-16T08:10:12;25.48;;;12.25;;
29314;SDS011;16320;53.954;9.506;2024-01-16T08:12:44;7.13;;;5.47;;
29314;SDS011;16320;53.954;9.506;2024-01-16T08:15:12;15.05;;;4.55;;
29314;SDS011;16320;53.954;9.506;2024-01-16T08:17:42;8.70;;;4.95;;
29314;SDS011;16320;53.954;9.506;2024-01-16T08:20:11;11.65;;;5.97;;
29314;SDS011;16320;53.954;9.506;2024-01-16T08:22:39;8.63;;;4.40;;
29314;SDS011;16320;53.954;9.506;2024-01-16T08:25:10;10.05;;;4.63;;
29314;SDS011;16320;53.954;9.506;2024-01-16T08:27:38;9.15;;;4.20;;
29314;SDS011;16320;53.954;9.506;2024-01-16T08:30:07;11.32;;;4.55;;
29314;SDS011;16320;53.954;9.506;2024-01-16T08:32:36;7.35;;;4.65;;
29314;SDS011;16320;53.954;9.506;2024-01-16T08:35:04;7.85;;;4.13;;
29314;SDS011;16320;53.954;9.506;2024-01-16T08:37:34;5.43;;;3.78;;
29314;SDS011;16320;53.954;9.506;2024-01-16T08:40:02;7.72;;;3.42;;
29314;SDS011;16320;53.954;9.506;2024-01-16T08:42:31;8.63;;;3.53;;
29314;SDS011;16320;53.954;9.506;2024-01-16T08:44:59;6.20;;;2.60;;
29314;SDS011;16320;53.954;9.506;2024-01-16T08:47:28;8.13;;;3.15;;
29314;SDS011;16320;53.954;9.506;2024-01-16T08:49:56;4.65;;;2.67;;
29314;SDS011;16320;53.954;9.506;2024-01-16T08:52:24;8.10;;;2.50;;
29314;SDS011;16320;53.954;9.506;2024-01-16T08:54:52;6.50;;;2.60;;
29314;SDS011;16320;53.954;9.506;2024-01-16T08:57:20;4.30;;;2.65;;
29314;SDS011;16320;53.954;9.506;2024-01-16T08:59:52;6.65;;;2.92;;
29314;SDS011;16320;53.954;9.506;2024-01-16T09:02:20;3.65;;;2.65;;
29314;SDS011;16320;53.954;9.506;2024-01-16T09:04:48;6.40;;;2.58;;
29314;SDS011;16320;53.954;9.506;2024-01-16T09:07:17;7.50;;;2.88;;
29314;SDS011;16320;53.954;9.506;2024-01-16T09:09:45;6.13;;;3.42;;
29314;SDS011;16320;53.954;9.506;2024-01-16T09:12:14;22.67;;;10.85;;
29314;SDS011;16320;53.954;9.506;2024-01-16T09:14:43;8.48;;;6.25;;
29314;SDS011;16320;53.954;9.506;2024-01-16T09:17:11;8.88;;;3.97;;
29314;SDS011;16320;53.954;9.506;2024-01-16T09:19:39;14.38;;;3.28;;
29314;SDS011;16320;53.954;9.506;2024-01-16T09:22:08;8.32;;;5.20;;
29314;SDS011;16320;53.954;9.506;2024-01-16T09:24:36;8.35;;;4.72;;
29314;SDS011;16320;53.954;9.506;2024-01-16T09:27:05;17.45;;;7.40;;
29314;SDS011;16320;53.954;9.506;2024-01-16T09:29:36;9.82;;;5.00;;
29314;SDS011;16320;53.954;9.506;2024-01-16T09:32:04;37.03;;;16.00;;
29314;SDS011;16320;53.954;9.506;2024-01-16T09:34:33;25.83;;;12.50;;
29314;SDS011;16320;53.954;9.506;2024-01-16T09:37:01;11.63;;;4.22;;
29314;SDS011;16320;53.954;9.506;2024-01-16T09:39:29;12.13;;;4.35;;
29314;SDS011;16320;53.954;9.506;2024-01-16T09:41:59;31.58;;;9.82;;
29314;SDS011;16320;53.954;9.506;2024-01-16T09:44:28;12.15;;;4.20;;
29314;SDS011;16320;53.954;9.506;2024-01-16T09:46:56;21.90;;;7.90;;
29314;SDS011;16320;53.954;9.506;2024-01-16T09:49:27;19.75;;;6.45;;
29314;SDS011;16320;53.954;9.506;2024-01-16T09:51:56;12.73;;;5.13;;
29314;SDS011;16320;53.954;9.506;2024-01-16T09:54:25;15.40;;;5.30;;
29314;SDS011;16320;53.954;9.506;2024-01-16T09:56:54;12.38;;;2.95;;
29314;SDS011;16320;53.954;9.506;2024-01-16T09:59:26;8.32;;;3.67;;
29314;SDS011;16320;53.954;9.506;2024-01-16T10:01:56;10.95;;;3.70;;
29314;SDS011;16320;53.954;9.506;2024-01-16T10:04:25;10.57;;;3.17;;
29314;SDS011;16320;53.954;9.506;2024-01-16T10:06:54;7.60;;;2.63;;
29314;SDS011;16320;53.954;9.506;2024-01-16T10:09:25;17.60;;;3.00;;
29314;SDS011;16320;53.954;9.506;2024-01-16T10:11:53;9.32;;;2.78;;
29314;SDS011;16320;53.954;9.506;2024-01-16T10:14:22;9.35;;;2.95;;
29314;SDS011;16320;53.954;9.506;2024-01-16T10:17:09;15.23;;;4.35;;
29314;SDS011;16320;53.954;9.506;2024-01-16T10:19:52;11.25;;;2.78;;
29314;SDS011;16320;53.954;9.506;2024-01-16T10:22:22;10.10;;;3.50;;
29314;SDS011;16320;53.954;9.506;2024-01-16T10:25:11;7.30;;;2.42;;
29314;SDS011;16320;53.954;9.506;2024-01-16T10:27:43;6.82;;;2.05;;
29314;SDS011;16320;53.954;9.506;2024-01-16T10:30:11;11.02;;;2.30;;
29314;SDS011;16320;53.954;9.506;2024-01-16T10:32:41;7.22;;;2.30;;
29314;SDS011;16320;53.954;9.506;2024-01-16T10:35:11;6.78;;;2.70;;
29314;SDS011;16320;53.954;9.506;2024-01-16T10:37:51;6.63;;;2.38;;
29314;SDS011;16320;53.954;9.506;2024-01-16T10:40:23;11.65;;;2.70;;
29314;SDS011;16320;53.954;9.506;2024-01-16T10:43:02;9.60;;;2.00;;
29314;SDS011;16320;53.954;9.506;2024-01-16T10:45:32;27.95;;;9.70;;
29314;SDS011;16320;53.954;9.506;2024-01-16T10:50:35;14.90;;;4.80;;
29314;SDS011;16320;53.954;9.506;2024-01-16T10:53:07;4.75;;;2.95;;
29314;SDS011;16320;53.954;9.506;2024-01-16T10:55:38;8.02;;;2.88;;
29314;SDS011;16320;53.954;9.506;2024-01-16T10:58:21;7.85;;;3.13;;
29314;SDS011;16320;53.954;9.506;2024-01-16T11:00:52;9.75;;;2.78;;
29314;SDS011;16320;53.954;9.506;2024-01-16T11:03:46;5.35;;;3.10;;
29314;SDS011;16320;53.954;9.506;2024-01-16T11:06:19;10.32;;;3.25;;
29314;SDS011;16320;53.954;9.506;2024-01-16T11:08:48;7.13;;;2.92;;
29314;SDS011;16320;53.954;9.506;2024-01-16T11:11:18;3.33;;;2.60;;
29314;SDS011;16320;53.954;9.506;2024-01-16T11:13:47;8.63;;;3.25;;
29314;SDS011;16320;53.954;9.506;2024-01-16T11:16:16;8.15;;;2.80;;
29314;SDS011;16320;53.954;9.506;2024-01-16T11:18:45;6.57;;;2.88;;
29314;SDS011;16320;53.954;9.506;2024-01-16T11:21:15;5.22;;;2.92;;
29314;SDS011;16320;53.954;9.506;2024-01-16T11:23:53;6.35;;;2.78;;
29314;SDS011;16320;53.954;9.506;2024-01-16T11:26:27;7.47;;;2.55;;
29314;SDS011;16320;53.954;9.506;2024-01-16T11:29:01;5.30;;;2.33;;
29314;SDS011;16320;53.954;9.506;2024-01-16T11:31:55;5.97;;;2.78;;
29314;SDS011;16320;53.954;9.506;2024-01-16T11:37:15;6.18;;;2.35;;
29314;SDS011;16320;53.954;9.506;2024-01-16T11:42:50;4.95;;;2.20;;
29314;SDS011;16320;53.954;9.506;2024-01-16T11:48:09;11.05;;;2.10;;
29314;SDS011;16320;53.954;9.506;2024-01-16T11:50:41;6.00;;;2.45;;
29314;SDS011;16320;53.954;9.506;2024-01-16T11:53:10;8.30;;;3.10;;
29314;SDS011;16320;53.954;9.506;2024-01-16T11:56:48;6.05;;;2.15;;
29314;SDS011;16320;53.954;9.506;2024-01-16T11:59:18;8.32;;;1.60;;
29314;SDS011;16320;53.954;9.506;2024-01-16T12:02:10;9.02;;;1.80;;
29314;SDS011;16320;53.954;9.506;2024-01-16T12:04:53;5.88;;;1.80;;
29314;SDS011;16320;53.954;9.506;2024-01-16T12:07:23;9.38;;;1.92;;
29314;SDS011;16320;53.954;9.506;2024-01-16T12:09:51;7.95;;;3.40;;
29314;SDS011;16320;53.954;9.506;2024-01-16T12:12:19;8.68;;;2.28;;
29314;SDS011;16320;53.954;9.506;2024-01-16T12:14:53;11.73;;;2.80;;
29314;SDS011;16320;53.954;9.506;2024-01-16T12:17:21;5.25;;;2.38;;
29314;SDS011;16320;53.954;9.506;2024-01-16T12:19:49;7.38;;;2.55;;
29314;SDS011;16320;53.954;9.506;2024-01-16T12:22:17;9.23;;;2.72;;
29314;SDS011;16320;53.954;9.506;2024-01-16T12:24:50;16.40;;;3.30;;
29314;SDS011;16320;53.954;9.506;2024-01-16T12:27:25;8.50;;;3.22;;
29314;SDS011;16320;53.954;9.506;2024-01-16T12:30:04;6.97;;;2.97;;
29314;SDS011;16320;53.954;9.506;2024-01-16T12:32:34;6.85;;;2.58;;
29314;SDS011;16320;53.954;9.506;2024-01-16T12:35:03;10.30;;;2.80;;
29314;SDS011;16320;53.954;9.506;2024-01-16T12:37:31;7.80;;;2.65;;
29314;SDS011;16320;53.954;9.506;2024-01-16T12:39:59;6.65;;;2.95;;
29314;SDS011;16320;53.954;9.506;2024-01-16T12:42:27;8.52;;;2.83;;
29314;SDS011;16320;53.954;9.506;2024-01-16T12:44:56;9.65;;;2.67;;
29314;SDS011;16320;53.954;9.506;2024-01-16T12:47:24;14.77;;;4.15;;
29314;SDS011;16320;53.954;9.506;2024-01-16T12:49:52;5.47;;;2.55;;
29314;SDS011;16320;53.954;9.506;2024-01-16T12:52:21;8.73;;;2.53;;
29314;SDS011;16320;53.954;9.506;2024-01-16T12:54:58;8.10;;;2.63;;
29314;SDS011;16320;53.954;9.506;2024-01-16T12:57:27;10.07;;;2.42;;
29314;SDS011;16320;53.954;9.506;2024-01-16T12:59:56;11.40;;;2.75;;
29314;SDS011;16320;53.954;9.506;2024-01-16T13:02:27;9.07;;;2.78;;
29314;SDS011;16320;53.954;9.506;2024-01-16T13:04:59;8.57;;;2.30;;
29314;SDS011;16320;53.954;9.506;2024-01-16T13:07:29;8.60;;;2.55;;
29314;SDS011;16320;53.954;9.506;2024-01-16T13:10:06;8.18;;;1.98;;
29314;SDS011;16320;53.954;9.506;2024-01-16T13:12:42;12.20;;;3.22;;
29314;SDS011;16320;53.954;9.506;2024-01-16T13:15:11;12.30;;;3.60;;
29314;SDS011;16320;53.954;9.506;2024-01-16T13:17:43;6.35;;;2.45;;
29314;SDS011;16320;53.954;9.506;2024-01-16T13:20:11;11.70;;;5.65;;
29314;SDS011;16320;53.954;9.506;2024-01-16T13:22:41;21.58;;;5.75;;
29314;SDS011;16320;53.954;9.506;2024-01-16T13:25:13;9.60;;;3.40;;
29314;SDS011;16320;53.954;9.506;2024-01-16T13:27:42;16.08;;;4.93;;
29314;SDS011;16320;53.954;9.506;2024-01-16T13:30:10;12.05;;;3.85;;
29314;SDS011;16320;53.954;9.506;2024-01-16T13:32:41;6.72;;;1.90;;
29314;SDS011;16320;53.954;9.506;2024-01-16T13:35:09;13.68;;;4.35;;
29314;SDS011;16320;53.954;9.506;2024-01-16T13:37:38;6.13;;;2.30;;
29314;SDS011;16320;53.954;9.506;2024-01-16T13:40:07;10.05;;;2.60;;
29314;SDS011;16320;53.954;9.506;2024-01-16T13:42:38;9.27;;;2.42;;
29314;SDS011;16320;53.954;9.506;2024-01-16T13:45:08;14.95;;;2.97;;
29314;SDS011;16320;53.954;9.506;2024-01-16T13:47:39;8.48;;;3.78;;
29314;SDS011;16320;53.954;9.506;2024-01-16T13:50:08;6.57;;;2.95;;
29314;SDS011;16320;53.954;9.506;2024-01-16T13:52:37;6.82;;;3.40;;
29314;SDS011;16320;53.954;9.506;2024-01-16T13:55:06;12.00;;;3.97;;
29314;SDS011;16320;53.954;9.506;2024-01-16T13:57:35;5.15;;;3.88;;
29314;SDS011;16320;53.954;9.506;2024-01-16T14:00:07;11.43;;;4.30;;
29314;SDS011;16320;53.954;9.506;2024-01-16T14:02:40;21.70;;;9.95;;
29314;SDS011;16320;53.954;9.506;2024-01-16T14:05:18;23.00;;;10.20;;
29314;SDS011;16320;53.954;9.506;2024-01-16T14:07:47;27.80;;;12.25;;
29314;SDS011;16320;53.954;9.506;2024-01-16T14:10:18;13.60;;;6.07;;
29314;SDS011;16320;53.954;9.506;2024-01-16T14:12:48;11.98;;;6.50;;
29314;SDS011;16320;53.954;9.506;2024-01-16T14:15:19;13.55;;;6.32;;
29314;SDS011;16320;53.954;9.506;2024-01-16T14:17:51;10.23;;;4.40;;
29314;SDS011;16320;53.954;9.506;2024-01-16T14:20:24;6.80;;;4.13;;
29314;SDS011;16320;53.954;9.506;2024-01-16T14:22:54;7.07;;;3.90;;
29314;SDS011;16320;53.954;9.506;2024-01-16T14:25:23;16.08;;;4.60;;
29314;SDS011;16320;53.954;9.506;2024-01-16T14:27:56;9.63;;;4.15;;
29314;SDS011;16320;53.954;9.506;2024-01-16T14:30:31;9.35;;;4.68;;
29314;SDS011;16320;53.954;9.506;2024-01-16T14:33:02;10.73;;;4.35;;
29314;SDS011;16320;53.954;9.506;2024-01-16T14:35:33;9.65;;;5.35;;
29314;SDS011;16320;53.954;9.506;2024-01-16T14:38:01;15.45;;;4.93;;
29314;SDS011;16320;53.954;9.506;2024-01-16T14:40:29;9.10;;;4.80;;
29314;SDS011;16320;53.954;9.506;2024-01-16T14:42:57;12.25;;;5.35;;
29314;SDS011;16320;53.954;9.506;2024-01-16T14:45:26;13.57;;;6.05;;
29314;SDS011;16320;53.954;9.506;2024-01-16T14:47:54;10.40;;;6.22;;
29314;SDS011;16320;53.954;9.506;2024-01-16T14:50:23;19.92;;;6.00;;
29314;SDS011;16320;53.954;9.506;2024-01-16T14:52:51;13.98;;;6.80;;
29314;SDS011;16320;53.954;9.506;2024-01-16T14:55:20;9.70;;;7.10;;
29314;SDS011;16320;53.954;9.506;2024-01-16T14:57:48;17.05;;;8.63;;
29314;SDS011;16320;53.954;9.506;2024-01-16T15:00:19;20.92;;;10.65;;
29314;SDS011;16320;53.954;9.506;2024-01-16T15:02:50;23.75;;;11.85;;
29314;SDS011;16320;53.954;9.506;2024-01-16T15:05:32;12.75;;;8.80;;